createdAt,value
2018-06-25T00:02:07.885Z,5.73
2018-06-25T00:04:36.272Z,5.53
2018-06-25T00:07:04.626Z,5.30
2018-06-25T00:09:32.932Z,5.20
2018-06-25T00:12:01.311Z,5.93
2018-06-25T00:14:29.640Z,5.77
2018-06-25T00:16:57.980Z,5.67
2018-06-25T00:19:26.303Z,5.97
2018-06-25T00:21:54.660Z,5.50
2018-06-25T00:24:22.992Z,5.23
2018-06-25T00:26:51.838Z,5.23
2018-06-25T00:29:20.169Z,5.10
2018-06-25T00:31:48.507Z,5.47
2018-06-25T00:34:16.889Z,5.40
2018-06-25T00:36:45.960Z,5.40
2018-06-25T00:39:14.291Z,5.17
2018-06-25T00:41:42.639Z,4.50
2018-06-25T00:44:12.089Z,5.37
2018-06-25T00:46:40.432Z,5.70
2018-06-25T00:49:09.746Z,5.20
2018-06-25T00:51:38.040Z,3.80
2018-06-25T00:54:06.404Z,4.80
2018-06-25T00:56:34.718Z,4.57
2018-06-25T00:59:14.195Z,4.10
2018-06-25T01:01:42.554Z,4.73
2018-06-25T01:04:10.812Z,4.40
2018-06-25T01:06:39.780Z,4.67
2018-06-25T01:09:10.696Z,5.00
2018-06-25T01:11:39.057Z,4.57
2018-06-25T01:14:07.484Z,4.93
2018-06-25T01:16:36.347Z,5.83
2018-06-25T01:19:04.699Z,6.40
2018-06-25T01:21:33.024Z,5.07
2018-06-25T01:24:01.700Z,5.27
2018-06-25T01:26:30.076Z,5.13
2018-06-25T01:28:58.420Z,6.27
2018-06-25T01:31:26.749Z,6.73
2018-06-25T01:33:55.132Z,5.60
2018-06-25T01:36:23.550Z,6.70
2018-06-25T01:38:51.896Z,6.13
2018-06-25T01:41:20.239Z,6.13
2018-06-25T01:43:48.611Z,7.03
2018-06-25T01:46:17.888Z,6.50
2018-06-25T01:48:46.231Z,6.10
2018-06-25T01:51:14.568Z,6.93
2018-06-25T01:53:42.921Z,7.97
2018-06-25T01:56:11.232Z,7.57
2018-06-25T01:58:39.559Z,7.07
2018-06-25T02:01:07.909Z,7.30
2018-06-25T02:03:36.580Z,6.40
2018-06-25T02:06:04.952Z,6.73
2018-06-25T02:08:33.263Z,7.70
2018-06-25T02:11:01.647Z,7.33
2018-06-25T02:13:29.987Z,7.40
2018-06-25T02:15:58.840Z,7.67
2018-06-25T02:18:27.160Z,7.53
2018-06-25T02:20:56.264Z,8.03
2018-06-25T02:23:24.573Z,8.03
2018-06-25T02:25:52.899Z,8.00
2018-06-25T02:28:21.212Z,8.90
2018-06-25T02:30:49.777Z,8.17
2018-06-25T02:33:18.117Z,8.70
2018-06-25T02:35:46.468Z,8.70
2018-06-25T02:38:14.787Z,8.60
2018-06-25T02:40:43.100Z,8.50
2018-06-25T02:43:11.396Z,7.87
2018-06-25T02:45:39.709Z,11.20
2018-06-25T02:48:08.056Z,7.83
2018-06-25T02:50:37.040Z,8.43
2018-06-25T02:53:05.677Z,8.40
2018-06-25T02:55:33.964Z,10.20
2018-06-25T02:58:02.303Z,8.87
2018-06-25T03:00:30.636Z,9.20
2018-06-25T03:02:58.955Z,8.37
2018-06-25T03:05:29.109Z,8.37
2018-06-25T03:07:57.540Z,8.03
2018-06-25T03:10:26.540Z,8.27
2018-06-25T03:12:54.863Z,8.67
2018-06-25T03:15:23.852Z,8.50
2018-06-25T03:17:52.199Z,8.80
2018-06-25T03:20:20.512Z,9.43
2018-06-25T03:22:48.853Z,9.60
2018-06-25T03:25:17.395Z,9.43
2018-06-25T03:27:45.754Z,9.00
2018-06-25T03:30:14.080Z,9.93
2018-06-25T03:32:43.054Z,9.77
2018-06-25T03:35:11.400Z,8.97
2018-06-25T03:37:39.741Z,10.20
2018-06-25T03:40:08.104Z,10.03
2018-06-25T03:42:37.332Z,10.47
2018-06-25T03:45:05.960Z,10.60
2018-06-25T03:47:34.266Z,11.53
2018-06-25T03:50:02.632Z,11.27
2018-06-25T03:52:31.391Z,14.70
2018-06-25T03:54:59.712Z,9.70
2018-06-25T03:57:28.668Z,10.47
2018-06-25T03:59:58.036Z,10.57
2018-06-25T04:02:26.339Z,10.97
2018-06-25T04:04:55.385Z,11.40
2018-06-25T04:07:26.097Z,11.20
2018-06-25T04:09:57.790Z,10.23
2018-06-25T04:12:27.861Z,11.60
2018-06-25T04:14:56.540Z,12.20
2018-06-25T04:17:25.410Z,11.20
2018-06-25T04:19:53.738Z,12.23
2018-06-25T04:22:22.104Z,10.60
2018-06-25T04:24:50.420Z,10.80
2018-06-25T04:27:18.756Z,9.87
2018-06-25T04:29:47.084Z,11.03
2018-06-25T04:32:15.405Z,9.77
2018-06-25T04:34:43.711Z,9.40
2018-06-25T04:37:12.392Z,9.47
2018-06-25T04:39:40.756Z,10.73
2018-06-25T04:42:09.087Z,9.90
2018-06-25T04:44:37.500Z,10.97
2018-06-25T04:47:05.860Z,10.60
2018-06-25T04:49:34.164Z,10.37
2018-06-25T04:52:02.476Z,10.10
2018-06-25T04:54:30.863Z,11.27
2018-06-25T04:56:59.173Z,9.67
2018-06-25T04:59:27.628Z,8.93
2018-06-25T05:01:56.173Z,9.33
2018-06-25T05:04:24.607Z,9.93
2018-06-25T05:06:52.914Z,9.80
2018-06-25T05:09:21.245Z,9.43
2018-06-25T05:11:49.548Z,10.67
2018-06-25T05:14:17.892Z,9.60
2018-06-25T05:16:46.200Z,9.73
2018-06-25T05:19:14.540Z,9.27
2018-06-25T05:21:42.851Z,8.30
2018-06-25T05:24:11.159Z,9.03
2018-06-25T05:26:39.515Z,8.20
2018-06-25T05:29:07.889Z,8.40
2018-06-25T05:31:36.163Z,8.40
2018-06-25T05:34:04.497Z,8.90
2018-06-25T05:36:32.816Z,9.90
2018-06-25T05:39:01.128Z,8.40
2018-06-25T05:41:29.447Z,8.70
2018-06-25T05:43:58.404Z,10.30
2018-06-25T05:46:26.724Z,9.73
2018-06-25T05:48:55.919Z,9.10
2018-06-25T05:51:24.232Z,9.57
2018-06-25T05:53:52.589Z,11.77
2018-06-25T05:56:20.920Z,10.43
2018-06-25T05:58:49.267Z,12.33
2018-06-25T06:01:17.757Z,12.70
2018-06-25T06:03:46.202Z,10.83
2018-06-25T06:06:14.560Z,10.33
2018-06-25T06:08:43.890Z,9.90
2018-06-25T06:11:12.211Z,10.23
2018-06-25T06:13:40.535Z,9.23
2018-06-25T06:16:08.844Z,9.07
2018-06-25T06:18:37.238Z,10.43
2018-06-25T06:21:05.714Z,9.30
2018-06-25T06:23:34.052Z,9.47
2018-06-25T06:26:02.448Z,10.57
2018-06-25T06:28:30.844Z,10.00
2018-06-25T06:30:59.196Z,8.80
2018-06-25T06:33:27.535Z,10.07
2018-06-25T06:35:55.840Z,9.43
2018-06-25T06:38:24.192Z,9.70
2018-06-25T06:40:52.500Z,10.20
2018-06-25T06:43:20.816Z,9.50
2018-06-25T06:45:49.160Z,8.70
2018-06-25T06:48:17.488Z,9.20
2018-06-25T06:50:45.837Z,11.17
2018-06-25T06:53:14.164Z,10.53
2018-06-25T06:55:42.611Z,8.07
2018-06-25T06:58:10.921Z,10.90
2018-06-25T07:00:39.244Z,10.37
2018-06-25T07:03:07.597Z,11.80
2018-06-25T07:05:35.933Z,9.63
2018-06-25T07:08:04.320Z,9.83
2018-06-25T07:10:32.756Z,8.33
2018-06-25T07:13:01.128Z,9.57
2018-06-25T07:15:29.466Z,11.43
2018-06-25T07:17:57.788Z,10.40
2018-06-25T07:20:27.497Z,11.37
2018-06-25T07:22:55.811Z,13.83
2018-06-25T07:25:24.192Z,15.37
2018-06-25T07:27:52.529Z,14.23
2018-06-25T07:30:22.620Z,16.10
2018-06-25T07:32:50.936Z,18.57
2018-06-25T07:35:19.296Z,20.03
2018-06-25T07:37:47.752Z,20.80
2018-06-25T07:40:16.074Z,20.07
2018-06-25T07:42:44.644Z,19.30
2018-06-25T07:45:12.965Z,18.73
2018-06-25T07:47:41.312Z,20.57
2018-06-25T07:50:09.668Z,21.43
2018-06-25T07:52:38.456Z,22.00
2018-06-25T07:55:06.780Z,22.30
2018-06-25T07:57:35.162Z,20.10
2018-06-25T08:00:03.689Z,22.40
2018-06-25T08:02:32.029Z,23.97
2018-06-25T08:05:00.868Z,25.33
2018-06-25T08:07:29.184Z,27.47
2018-06-25T08:09:57.544Z,27.77
2018-06-25T08:12:25.944Z,24.70
2018-06-25T08:14:54.276Z,24.00
2018-06-25T08:17:22.593Z,22.03
2018-06-25T08:19:50.933Z,22.30
2018-06-25T08:22:19.284Z,21.97
2018-06-25T08:24:47.636Z,23.33
2018-06-25T08:27:15.979Z,22.13
2018-06-25T08:29:44.344Z,24.27
2018-06-25T08:32:12.675Z,22.37
2018-06-25T08:34:41.017Z,22.63
2018-06-25T08:37:09.421Z,24.13
2018-06-25T08:39:37.627Z,19.57
2018-06-25T08:42:06.396Z,20.87
2018-06-25T08:44:35.389Z,23.27
2018-06-25T08:47:03.732Z,17.83
2018-06-25T08:49:32.048Z,18.13
2018-06-25T08:52:00.484Z,19.40
2018-06-25T08:54:28.732Z,20.23
2018-06-25T08:56:57.114Z,21.77
2018-06-25T08:59:25.396Z,25.00
2018-06-25T09:01:53.740Z,25.83
2018-06-25T09:04:22.059Z,25.63
2018-06-25T09:06:50.387Z,26.43
2018-06-25T09:09:18.869Z,25.47
2018-06-25T09:11:47.199Z,28.27
2018-06-25T09:14:16.505Z,28.93
2018-06-25T09:16:45.444Z,29.93
2018-06-25T09:19:13.775Z,33.23
2018-06-25T09:21:42.081Z,32.27
2018-06-25T09:24:10.456Z,31.13
2018-06-25T09:26:40.392Z,28.90
2018-06-25T09:29:09.817Z,30.77
2018-06-25T09:31:38.116Z,33.70
2018-06-25T09:34:10.663Z,31.60
2018-06-25T09:36:39.550Z,33.10
2018-06-25T09:39:09.368Z,32.47
2018-06-25T09:41:37.973Z,29.10
2018-06-25T09:44:06.096Z,24.23
2018-06-25T09:46:34.669Z,23.47
2018-06-25T09:49:02.996Z,23.40
2018-06-25T09:51:31.415Z,23.80
2018-06-25T09:54:00.355Z,26.90
2018-06-25T09:56:28.729Z,26.50
2018-06-25T09:58:57.804Z,20.57
2018-06-25T10:01:26.120Z,20.80
2018-06-25T10:03:54.436Z,19.97
2018-06-25T10:06:22.769Z,24.53
2018-06-25T10:08:51.097Z,28.40
2018-06-25T10:11:19.468Z,33.87
2018-06-25T10:13:47.804Z,31.10
2018-06-25T10:16:16.120Z,32.67
2018-06-25T10:18:44.495Z,30.33
2018-06-25T10:21:12.899Z,29.63
2018-06-25T10:23:41.204Z,25.30
2018-06-25T10:26:09.716Z,27.67
2018-06-25T10:28:38.404Z,31.50
2018-06-25T10:31:06.933Z,30.03
2018-06-25T10:33:35.283Z,28.50
2018-06-25T10:36:03.684Z,27.30
2018-06-25T10:38:32.020Z,25.07
2018-06-25T10:41:00.328Z,23.17
2018-06-25T10:43:28.669Z,22.23
2018-06-25T10:45:56.981Z,19.20
2018-06-25T10:48:25.300Z,23.23
2018-06-25T10:50:53.628Z,23.13
2018-06-25T10:53:21.943Z,22.00
2018-06-25T10:55:50.283Z,25.73
2018-06-25T10:58:18.819Z,24.10
2018-06-25T11:00:47.110Z,26.50
2018-06-25T11:03:15.425Z,28.40
2018-06-25T11:05:43.932Z,28.73
2018-06-25T11:08:13.152Z,30.37
2018-06-25T11:10:41.481Z,30.50
2018-06-25T11:13:10.732Z,30.47
2018-06-25T11:15:39.048Z,27.90
2018-06-25T11:18:07.366Z,27.10
2018-06-25T11:20:35.716Z,27.37
2018-06-25T11:23:04.050Z,20.97
2018-06-25T11:25:32.372Z,20.27
2018-06-25T11:28:00.692Z,21.07
2018-06-25T11:30:29.064Z,19.40
2018-06-25T11:32:57.376Z,17.63
2018-06-25T11:35:25.711Z,15.30
2018-06-25T11:37:54.103Z,14.77
2018-06-25T11:40:22.464Z,12.23
2018-06-25T11:42:50.800Z,14.50
2018-06-25T11:45:19.141Z,14.47
2018-06-25T11:47:47.468Z,13.67
2018-06-25T11:50:15.787Z,13.10
2018-06-25T11:52:44.130Z,12.03
2018-06-25T11:55:12.448Z,10.30
2018-06-25T11:57:40.767Z,7.33
2018-06-25T12:00:09.154Z,8.13
2018-06-25T12:02:37.670Z,7.43
2018-06-25T12:05:07.567Z,6.60
2018-06-25T12:07:35.926Z,5.00
2018-06-25T12:10:04.316Z,5.40
2018-06-25T12:12:32.734Z,4.50
2018-06-25T12:15:02.124Z,5.17
2018-06-25T12:17:30.567Z,5.23
2018-06-25T12:19:58.840Z,5.20
2018-06-25T12:22:27.184Z,4.10
2018-06-25T12:24:55.865Z,3.90
2018-06-25T12:27:24.280Z,4.87
2018-06-25T12:29:52.584Z,4.07
2018-06-25T12:32:20.940Z,5.97
2018-06-25T12:34:49.258Z,4.70
2018-06-25T12:37:17.608Z,5.43
2018-06-25T12:39:45.919Z,5.20
2018-06-25T12:42:14.246Z,4.60
2018-06-25T12:44:42.576Z,5.53
2018-06-25T12:47:10.920Z,5.43
2018-06-25T12:49:39.276Z,5.37
2018-06-25T12:52:07.619Z,4.97
2018-06-25T12:54:36.068Z,5.20
2018-06-25T12:57:04.418Z,5.00
2018-06-25T12:59:32.736Z,5.13
2018-06-25T13:02:01.040Z,5.70
2018-06-25T13:04:29.336Z,6.00
2018-06-25T13:06:57.684Z,6.00
2018-06-25T13:09:26.028Z,4.77
2018-06-25T13:11:54.355Z,5.93
2018-06-25T13:14:22.660Z,5.40
2018-06-25T13:16:51.175Z,5.27
2018-06-25T13:19:19.645Z,5.77
2018-06-25T13:21:47.964Z,4.33
2018-06-25T13:24:16.304Z,5.00
2018-06-25T13:26:44.640Z,4.33
2018-06-25T13:29:12.968Z,4.07
2018-06-25T13:31:41.383Z,4.40
2018-06-25T13:34:09.708Z,4.10
2018-06-25T13:36:38.052Z,3.43
2018-06-25T13:39:07.751Z,3.90
2018-06-25T13:41:36.223Z,3.07
2018-06-25T13:44:04.600Z,3.93
2018-06-25T13:46:32.948Z,4.13
2018-06-25T13:49:01.372Z,4.70
2018-06-25T13:51:29.750Z,4.00
2018-06-25T13:53:58.228Z,3.17
2018-06-25T13:56:26.680Z,3.30
2018-06-25T13:58:55.628Z,4.13
2018-06-25T14:01:23.946Z,3.40
2018-06-25T14:03:52.327Z,3.50
2018-06-25T14:06:20.628Z,3.30
2018-06-25T14:08:48.957Z,3.63
2018-06-25T14:11:17.300Z,2.90
2018-06-25T14:13:45.631Z,2.40
2018-06-25T14:16:14.119Z,2.47
2018-06-25T14:18:42.475Z,2.70
2018-06-25T14:21:10.825Z,3.03
2018-06-25T14:23:43.416Z,2.93
2018-06-25T14:26:15.462Z,2.70
2018-06-25T14:28:43.815Z,2.97
2018-06-25T14:31:17.576Z,2.33
2018-06-25T14:33:51.221Z,2.77
2018-06-25T14:36:19.576Z,3.30
2018-06-25T14:38:47.952Z,2.97
2018-06-25T14:41:16.291Z,3.47
2018-06-25T14:43:44.641Z,2.67
2018-06-25T14:46:13.034Z,3.30
2018-06-25T14:48:41.396Z,3.03
2018-06-25T14:51:09.688Z,2.57
2018-06-25T14:53:38.059Z,2.73
2018-06-25T14:56:06.376Z,3.10
2018-06-25T14:58:34.757Z,2.73
2018-06-25T15:01:03.073Z,3.30
2018-06-25T15:03:31.396Z,3.00
2018-06-25T15:05:59.751Z,3.67
2018-06-25T15:08:28.089Z,3.50
2018-06-25T15:10:56.419Z,3.77
2018-06-25T15:13:24.720Z,4.13
2018-06-25T15:15:53.063Z,3.90
2018-06-25T15:18:21.388Z,2.90
2018-06-25T15:20:49.712Z,4.67
2018-06-25T15:23:18.056Z,4.10
2018-06-25T15:25:46.425Z,3.70
2018-06-25T15:28:14.775Z,3.93
2018-06-25T15:30:43.118Z,3.37
2018-06-25T15:33:11.440Z,3.90
2018-06-25T15:35:39.750Z,4.20
2018-06-25T15:38:08.128Z,4.00
2018-06-25T15:40:36.372Z,4.50
2018-06-25T15:43:04.817Z,4.77
2018-06-25T15:45:33.241Z,5.47
2018-06-25T15:48:01.620Z,4.73
2018-06-25T15:50:29.922Z,5.10
2018-06-25T15:52:58.266Z,5.17
2018-06-25T15:55:26.596Z,6.77
2018-06-25T15:57:54.947Z,6.00
2018-06-25T16:00:23.348Z,5.93
2018-06-25T16:02:51.691Z,4.53
2018-06-25T16:05:20.029Z,5.33
2018-06-25T16:07:48.396Z,5.70
2018-06-25T16:10:16.816Z,5.77
2018-06-25T16:12:45.128Z,5.40
2018-06-25T16:15:13.496Z,4.63
2018-06-25T16:17:41.823Z,4.90
2018-06-25T16:20:10.156Z,4.73
2018-06-25T16:22:38.515Z,5.00
2018-06-25T16:25:07.172Z,5.70
2018-06-25T16:27:35.519Z,5.30
2018-06-25T16:30:04.132Z,5.40
2018-06-25T16:32:33.738Z,4.60
2018-06-25T16:35:02.386Z,6.00
2018-06-25T16:37:30.809Z,4.93
2018-06-25T16:39:59.133Z,4.60
2018-06-25T16:42:27.548Z,3.87
2018-06-25T16:44:56.090Z,3.90
2018-06-25T16:47:24.437Z,3.40
2018-06-25T16:49:52.872Z,3.67
2018-06-25T16:52:21.213Z,3.00
2018-06-25T16:54:49.541Z,2.47
2018-06-25T16:57:17.917Z,3.10
2018-06-25T16:59:46.310Z,2.57
2018-06-25T17:02:14.599Z,2.60
2018-06-25T17:04:42.919Z,2.60
2018-06-25T17:07:11.232Z,2.80
2018-06-25T17:09:39.545Z,3.03
2018-06-25T17:12:07.863Z,3.23
2018-06-25T17:14:36.187Z,2.30
2018-06-25T17:17:04.520Z,2.93
2018-06-25T17:19:32.854Z,2.73
2018-06-25T17:22:01.211Z,2.30
2018-06-25T17:24:30.295Z,3.03
2018-06-25T17:26:58.648Z,2.03
2018-06-25T17:29:32.257Z,2.77
2018-06-25T17:32:00.637Z,2.23
2018-06-25T17:34:28.932Z,2.27
2018-06-25T17:36:57.893Z,2.50
2018-06-25T17:39:26.307Z,2.87
2018-06-25T17:41:54.715Z,1.80
2018-06-25T17:44:23.027Z,2.37
2018-06-25T17:46:51.361Z,2.20
2018-06-25T17:49:19.692Z,2.20
2018-06-25T17:51:48.028Z,1.60
2018-06-25T17:54:16.368Z,2.23
2018-06-25T17:56:44.791Z,2.73
2018-06-25T17:59:13.212Z,2.40
2018-06-25T18:01:41.592Z,1.80
2018-06-25T18:04:10.493Z,1.80
2018-06-25T18:06:38.824Z,1.90
2018-06-25T18:09:08.781Z,1.80
2018-06-25T18:11:37.213Z,2.10
2018-06-25T18:14:06.605Z,1.60
2018-06-25T18:16:35.000Z,2.10
2018-06-25T18:19:03.642Z,2.13
2018-06-25T18:21:31.947Z,2.10
2018-06-25T18:24:00.292Z,1.77
2018-06-25T18:26:28.787Z,1.67
2018-06-25T18:28:57.143Z,2.10
2018-06-25T18:31:25.532Z,2.40
2018-06-25T18:33:53.849Z,2.17
2018-06-25T18:36:22.640Z,1.57
2018-06-25T18:38:50.989Z,2.37
2018-06-25T18:41:19.472Z,2.43
2018-06-25T18:43:47.944Z,2.23
2018-06-25T18:46:15.975Z,3.07
2018-06-25T18:48:45.025Z,2.60
2018-06-25T18:51:13.525Z,2.20
2018-06-25T18:53:41.839Z,1.80
2018-06-25T18:56:10.200Z,2.10
2018-06-25T18:58:38.544Z,2.97
2018-06-25T19:01:08.188Z,2.90
2018-06-25T19:03:36.608Z,2.50
2018-06-25T19:06:05.117Z,2.00
2018-06-25T19:08:33.544Z,2.47
2018-06-25T19:11:02.016Z,3.10
2018-06-25T19:13:30.332Z,3.40
2018-06-25T19:15:59.368Z,2.17
2018-06-25T19:18:27.920Z,2.53
2018-06-25T19:20:56.977Z,2.60
2018-06-25T19:23:25.280Z,2.30
2018-06-25T19:25:53.617Z,3.53
2018-06-25T19:28:21.927Z,2.30
2018-06-25T19:30:50.280Z,2.07
2018-06-25T19:33:18.596Z,2.20
2018-06-25T19:35:46.964Z,2.90
2018-06-25T19:38:15.271Z,2.10
2018-06-25T19:40:43.662Z,2.43
2018-06-25T19:43:11.966Z,2.30
2018-06-25T19:45:40.281Z,2.40
2018-06-25T19:48:08.656Z,2.27
2018-06-25T19:50:36.997Z,2.90
2018-06-25T19:53:05.327Z,3.07
2018-06-25T19:55:33.682Z,2.23
2018-06-25T19:58:02.262Z,2.90
2018-06-25T20:00:30.627Z,2.20
2018-06-25T20:02:58.932Z,2.53
2018-06-25T20:05:27.247Z,3.07
2018-06-25T20:07:55.957Z,2.40
2018-06-25T20:10:24.404Z,3.00
2018-06-25T20:12:52.792Z,2.70
2018-06-25T20:15:21.210Z,2.60
2018-06-25T20:17:49.634Z,2.90
2018-06-25T20:20:17.946Z,2.87
2018-06-25T20:22:46.292Z,3.60
2018-06-25T20:25:14.657Z,2.87
2018-06-25T20:27:43.156Z,3.03
2018-06-25T20:30:11.637Z,2.70
2018-06-25T20:32:40.009Z,3.07
2018-06-25T20:35:09.008Z,2.83
2018-06-25T20:37:37.352Z,2.80
2018-06-25T20:40:05.696Z,3.37
2018-06-25T20:42:34.028Z,2.97
2018-06-25T20:45:02.812Z,2.90
2018-06-25T20:47:31.156Z,2.70
2018-06-25T20:49:59.457Z,3.50
2018-06-25T20:52:27.792Z,2.90
2018-06-25T20:54:57.540Z,2.30
2018-06-25T20:57:25.847Z,2.80
2018-06-25T20:59:54.151Z,2.97
2018-06-25T21:02:22.500Z,4.40
2018-06-25T21:04:50.811Z,2.67
2018-06-25T21:07:19.114Z,3.20
2018-06-25T21:09:47.464Z,2.77
2018-06-25T21:12:15.767Z,2.50
2018-06-25T21:14:44.120Z,2.90
2018-06-25T21:17:12.448Z,2.90
2018-06-25T21:19:40.865Z,2.53
2018-06-25T21:22:09.188Z,3.20
2018-06-25T21:24:37.511Z,2.90
2018-06-25T21:27:05.908Z,2.80
2018-06-25T21:29:34.204Z,2.70
2018-06-25T21:32:02.826Z,3.00
2018-06-25T21:34:31.152Z,3.10
2018-06-25T21:36:59.524Z,2.83
2018-06-25T21:39:27.845Z,2.90
2018-06-25T21:41:56.147Z,2.97
2018-06-25T21:44:24.496Z,2.67
2018-06-25T21:46:52.922Z,3.50
2018-06-25T21:49:21.660Z,3.57
2018-06-25T21:51:49.963Z,3.43
2018-06-25T21:54:18.304Z,3.93
2018-06-25T21:56:46.617Z,3.10
2018-06-25T21:59:14.939Z,2.93
2018-06-25T22:01:43.328Z,4.37
2018-06-25T22:04:11.632Z,3.40
2018-06-25T22:06:39.972Z,2.90
2018-06-25T22:09:09.076Z,3.90
2018-06-25T22:11:37.393Z,4.23
2018-06-25T22:14:05.756Z,3.23
2018-06-25T22:16:34.120Z,3.00
2018-06-25T22:19:02.452Z,4.40
2018-06-25T22:21:30.773Z,4.03
2018-06-25T22:23:59.153Z,3.70
2018-06-25T22:26:27.473Z,3.57
2018-06-25T22:28:55.791Z,3.40
2018-06-25T22:31:24.797Z,3.83
2018-06-25T22:33:53.820Z,4.60
2018-06-25T22:36:22.872Z,3.30
2018-06-25T22:38:51.172Z,3.90
2018-06-25T22:41:19.544Z,3.47
2018-06-25T22:43:47.879Z,4.60
2018-06-25T22:46:16.267Z,4.30
2018-06-25T22:48:44.663Z,3.97
2018-06-25T22:51:13.004Z,5.40
2018-06-25T22:53:41.347Z,4.60
2018-06-25T22:56:09.656Z,4.83
2018-06-25T22:58:37.952Z,4.83
2018-06-25T23:01:06.352Z,5.13
2018-06-25T23:03:34.695Z,4.80
2018-06-25T23:06:02.956Z,5.20
2018-06-25T23:08:31.268Z,5.60
2018-06-25T23:10:59.580Z,5.30
2018-06-25T23:13:27.888Z,6.23
2018-06-25T23:15:56.213Z,5.83
2018-06-25T23:18:24.520Z,5.77
2018-06-25T23:20:52.823Z,5.10
2018-06-25T23:23:21.130Z,6.00
2018-06-25T23:25:50.108Z,5.47
2018-06-25T23:28:19.434Z,6.50
2018-06-25T23:30:48.271Z,6.20
2018-06-25T23:33:16.656Z,6.07
2018-06-25T23:35:44.964Z,5.60
2018-06-25T23:38:13.285Z,5.53
2018-06-25T23:40:41.617Z,8.00
2018-06-25T23:43:09.945Z,7.60
2018-06-25T23:45:38.255Z,6.13
2018-06-25T23:48:06.584Z,6.97
2018-06-25T23:50:34.912Z,6.87
2018-06-25T23:53:03.236Z,7.57
2018-06-25T23:55:31.620Z,6.83
2018-06-25T23:57:59.961Z,7.87
